Lolo, Montana
Current Conditions -  °F | °C
As of 9:53 PM on Friday 19 Dec 2014 (Local Time) from KMSO Reporting Station
Moderate Fog Moderate Fog  
Wind Chill: 31°   Ceiling: 200
Heat Index: 31°   Visibility: 0.25mi
Dew Point: 30°   Wind: 3mph
Humidity: 96%   Direction: 130°SE
Pressure: 30"   Gusts: NA
Location:  46.75°N, 114.09°W
Report Text: KMSO 200453Z 13003KT 1/4SM FZFG VV002 M01/M01 A3000 RMK AO2 SLP189 T10061011
Loading
Personal Weather Stations






























Interactive Weather Map New forecast layout! Learn more

10-Day Weather Forecast

Advertisements
Track Severe Weather on mobile